createdAt,value
2023-05-12T00:00:06.675Z,15.30
2023-05-12T00:01:08.456Z,15.30
2023-05-12T00:02:10.228Z,15.30
2023-05-12T00:03:12.617Z,15.30
2023-05-12T00:04:14.629Z,15.30
2023-05-12T00:05:16.353Z,15.30
2023-05-12T00:06:19.630Z,15.30
2023-05-12T00:07:21.363Z,15.30
2023-05-12T00:08:23.050Z,15.30
2023-05-12T00:09:25.126Z,15.20
2023-05-12T00:10:30.417Z,15.20
2023-05-12T00:11:33.733Z,15.20
2023-05-12T00:12:37.625Z,15.20
2023-05-12T00:13:40.101Z,15.20
2023-05-12T00:14:41.999Z,15.20
2023-05-12T00:15:43.692Z,15.20
2023-05-12T00:16:56.517Z,15.20
2023-05-12T00:17:58.511Z,15.20
2023-05-12T00:19:00.607Z,15.20
2023-05-12T00:20:04.257Z,15.20
2023-05-12T00:21:11.041Z,15.20
2023-05-12T00:22:13.005Z,15.20
2023-05-12T00:23:14.672Z,15.20
2023-05-12T00:24:16.454Z,15.20
2023-05-12T00:25:18.180Z,15.20
2023-05-12T00:26:19.893Z,15.20
2023-05-12T00:27:21.584Z,15.20
2023-05-12T00:28:23.252Z,15.20
2023-05-12T00:29:25.079Z,15.20
2023-05-12T00:30:26.747Z,15.20
2023-05-12T00:31:30.656Z,15.20
2023-05-12T00:32:32.446Z,15.10
2023-05-12T00:33:34.143Z,15.10
2023-05-12T00:34:35.837Z,15.10
2023-05-12T00:35:37.481Z,15.10
2023-05-12T00:36:39.490Z,15.10
2023-05-12T00:37:41.551Z,15.10
2023-05-12T00:38:43.380Z,15.10
2023-05-12T00:39:45.074Z,15.10
2023-05-12T00:40:46.832Z,15.30
2023-05-12T00:41:50.169Z,15.20
2023-05-12T00:42:52.009Z,15.20
2023-05-12T00:43:53.924Z,15.20
2023-05-12T00:44:55.591Z,15.20
2023-05-12T00:45:58.028Z,15.20
2023-05-12T00:47:01.210Z,15.20
2023-05-12T00:48:05.312Z,15.20
2023-05-12T00:49:07.869Z,15.20
2023-05-12T00:50:09.925Z,15.20
2023-05-12T00:51:13.309Z,15.20
2023-05-12T00:52:15.187Z,15.20
2023-05-12T00:53:17.370Z,15.20
2023-05-12T00:54:19.496Z,15.10
2023-05-12T00:55:21.655Z,15.10
2023-05-12T00:56:23.583Z,15.20
2023-05-12T00:57:28.070Z,15.20
2023-05-12T00:58:29.882Z,15.10
2023-05-12T00:59:31.803Z,15.20
2023-05-12T01:00:33.508Z,15.10
2023-05-12T01:01:36.048Z,15.10
2023-05-12T01:02:39.413Z,15.20
2023-05-12T01:03:41.616Z,15.20
2023-05-12T01:04:43.677Z,15.10
2023-05-12T01:06:12.470Z,15.10
2023-05-12T01:07:22.106Z,15.10
2023-05-12T01:08:25.225Z,15.10
2023-05-12T01:09:27.027Z,15.10
2023-05-12T01:10:28.809Z,15.10
2023-05-12T01:11:30.696Z,15.00
2023-05-12T01:12:33.641Z,15.00
2023-05-12T01:13:36.558Z,15.00
2023-05-12T01:14:39.231Z,15.00
2023-05-12T01:15:47.414Z,15.00
2023-05-12T01:16:54.387Z,14.90
2023-05-12T01:18:01.805Z,14.90
2023-05-12T01:19:07.459Z,14.90
2023-05-12T01:20:12.391Z,14.90
2023-05-12T01:21:14.209Z,14.90
2023-05-12T01:22:17.536Z,14.90
2023-05-12T01:23:21.316Z,14.90
2023-05-12T01:24:27.191Z,14.90
2023-05-12T01:25:33.128Z,14.90
2023-05-12T01:26:34.843Z,14.90
2023-05-12T01:27:39.702Z,14.90
2023-05-12T01:28:42.208Z,14.90
2023-05-12T01:29:48.094Z,14.90
2023-05-12T01:30:50.490Z,14.90
2023-05-12T01:31:52.316Z,14.90
2023-05-12T01:32:54.653Z,14.90
2023-05-12T01:33:56.410Z,14.90
2023-05-12T01:34:58.263Z,14.90
2023-05-12T01:35:59.988Z,14.90
2023-05-12T01:37:01.929Z,14.90
2023-05-12T01:38:04.306Z,14.90
2023-05-12T01:39:06.007Z,15.00
2023-05-12T01:40:08.201Z,14.90
2023-05-12T01:41:10.484Z,14.90
2023-05-12T01:42:12.312Z,14.90
2023-05-12T01:43:14.003Z,14.90
2023-05-12T01:44:15.697Z,14.90
2023-05-12T01:45:17.586Z,14.90
2023-05-12T01:46:19.370Z,14.90
2023-05-12T01:47:21.649Z,14.90
2023-05-12T01:48:23.464Z,14.90
2023-05-12T01:49:25.243Z,15.00
2023-05-12T01:50:28.246Z,15.00
2023-05-12T01:51:29.942Z,15.00
2023-05-12T01:52:32.679Z,15.10
2023-05-12T01:53:34.446Z,15.00
2023-05-12T01:54:37.286Z,15.00
2023-05-12T01:55:39.374Z,15.00
2023-05-12T01:56:41.119Z,15.00
2023-05-12T01:57:43.125Z,15.00
2023-05-12T01:58:44.881Z,15.00
2023-05-12T01:59:46.605Z,14.90
2023-05-12T02:00:48.377Z,14.90
2023-05-12T02:01:50.099Z,14.90
2023-05-12T02:02:52.024Z,14.90
2023-05-12T02:03:54.328Z,14.90
2023-05-12T02:04:56.085Z,14.90
2023-05-12T02:05:57.838Z,14.90
2023-05-12T02:06:59.969Z,14.90
2023-05-12T02:08:04.242Z,14.90
2023-05-12T02:09:05.984Z,14.90
2023-05-12T02:10:08.540Z,14.90
2023-05-12T02:11:10.230Z,14.90
2023-05-12T02:12:11.972Z,14.90
2023-05-12T02:13:13.982Z,14.90
2023-05-12T02:14:15.965Z,14.90
2023-05-12T02:15:18.642Z,14.90
2023-05-12T02:16:20.911Z,14.90
2023-05-12T02:17:25.108Z,14.90
2023-05-12T02:18:27.127Z,14.90
2023-05-12T02:19:28.800Z,14.90
2023-05-12T02:20:30.759Z,14.90
2023-05-12T02:21:33.220Z,14.90
2023-05-12T02:22:35.079Z,14.90
2023-05-12T02:23:39.398Z,14.90
2023-05-12T02:24:41.233Z,14.90
2023-05-12T02:25:42.909Z,14.80
2023-05-12T02:26:44.704Z,14.80
2023-05-12T02:27:46.369Z,14.80
2023-05-12T02:28:48.159Z,14.80
2023-05-12T02:29:50.162Z,14.80
2023-05-12T02:30:53.246Z,14.70
2023-05-12T02:31:55.007Z,14.80
2023-05-12T02:32:56.872Z,14.70
2023-05-12T02:33:59.084Z,14.70
2023-05-12T02:35:01.184Z,14.70
2023-05-12T02:36:03.191Z,14.70
2023-05-12T02:37:05.219Z,14.70
2023-05-12T02:38:07.345Z,14.70
2023-05-12T02:39:09.021Z,14.70
2023-05-12T02:40:11.260Z,14.70
2023-05-12T02:41:13.007Z,14.60
2023-05-12T02:42:14.677Z,14.60
2023-05-12T02:43:16.347Z,14.60
2023-05-12T02:44:18.580Z,14.60
2023-05-12T02:45:20.272Z,14.60
2023-05-12T02:46:22.057Z,14.60
2023-05-12T02:47:23.855Z,14.60
2023-05-12T02:48:25.552Z,14.60
2023-05-12T02:49:27.612Z,14.60
2023-05-12T02:50:29.416Z,14.60
2023-05-12T02:51:31.961Z,14.60
2023-05-12T02:52:34.057Z,14.60
2023-05-12T02:53:35.757Z,14.60
2023-05-12T02:54:37.438Z,14.60
2023-05-12T02:55:39.300Z,14.60
2023-05-12T02:56:41.035Z,14.60
2023-05-12T02:57:43.873Z,14.60
2023-05-12T02:58:46.291Z,14.60
2023-05-12T02:59:48.004Z,14.60
2023-05-12T03:00:56.936Z,14.60
2023-05-12T03:02:05.655Z,14.60
2023-05-12T03:03:07.876Z,14.60
2023-05-12T03:04:09.677Z,14.60
2023-05-12T03:05:11.409Z,14.50
2023-05-12T03:06:13.090Z,14.50
2023-05-12T03:07:14.784Z,14.50
2023-05-12T03:08:16.673Z,14.50
2023-05-12T03:09:18.361Z,14.50
2023-05-12T03:10:20.334Z,14.50
2023-05-12T03:11:22.814Z,14.50
2023-05-12T03:12:24.912Z,14.50
2023-05-12T03:13:26.647Z,14.50
2023-05-12T03:14:28.654Z,14.50
2023-05-12T03:15:30.507Z,14.50
2023-05-12T03:16:32.464Z,14.50
2023-05-12T03:17:34.345Z,14.50
2023-05-12T03:18:36.304Z,14.50
2023-05-12T03:19:39.096Z,14.50
2023-05-12T03:20:40.894Z,14.50
2023-05-12T03:21:42.719Z,14.50
2023-05-12T03:22:44.446Z,14.50
2023-05-12T03:23:46.137Z,14.50
2023-05-12T03:24:47.876Z,14.50
2023-05-12T03:25:49.534Z,14.50
2023-05-12T03:26:51.209Z,14.50
2023-05-12T03:27:52.871Z,14.50
2023-05-12T03:28:54.569Z,14.50
2023-05-12T03:29:56.877Z,14.50
2023-05-12T03:30:58.614Z,14.50
2023-05-12T03:32:00.310Z,14.50
2023-05-12T03:33:01.995Z,14.50
2023-05-12T03:34:03.715Z,14.50
2023-05-12T03:35:07.111Z,14.50
2023-05-12T03:36:09.104Z,14.50
2023-05-12T03:37:10.844Z,14.50
2023-05-12T03:38:12.661Z,14.50
2023-05-12T03:39:14.437Z,14.50
2023-05-12T03:40:18.711Z,14.50
2023-05-12T03:41:22.048Z,14.50
2023-05-12T03:42:26.382Z,14.50
2023-05-12T03:43:29.662Z,14.50
2023-05-12T03:44:31.305Z,14.50
2023-05-12T03:45:33.124Z,14.50
2023-05-12T03:46:35.176Z,14.50
2023-05-12T03:47:37.428Z,14.50
2023-05-12T03:48:39.266Z,14.50
2023-05-12T03:49:41.518Z,14.50
2023-05-12T03:50:43.178Z,14.50
2023-05-12T03:51:44.960Z,14.50
2023-05-12T03:52:46.604Z,14.50
2023-05-12T03:53:48.717Z,14.50
2023-05-12T03:54:50.957Z,14.50
2023-05-12T03:55:52.680Z,14.50
2023-05-12T03:56:54.473Z,14.50
2023-05-12T03:57:56.799Z,14.50
2023-05-12T03:58:58.462Z,14.50
2023-05-12T04:00:00.659Z,14.50
2023-05-12T04:01:02.447Z,14.50
2023-05-12T04:02:04.399Z,14.50
2023-05-12T04:03:06.261Z,14.50
2023-05-12T04:04:08.108Z,14.50
2023-05-12T04:05:10.281Z,14.50
2023-05-12T04:06:12.466Z,14.50
2023-05-12T04:07:14.176Z,14.50
2023-05-12T04:08:16.313Z,14.50
2023-05-12T04:09:18.050Z,14.50
2023-05-12T04:10:19.889Z,14.50
2023-05-12T04:11:21.727Z,14.50
2023-05-12T04:12:23.473Z,14.50
2023-05-12T04:13:26.105Z,14.50
2023-05-12T04:14:39.176Z,14.50
2023-05-12T04:15:43.712Z,14.50
2023-05-12T04:16:46.791Z,14.50
2023-05-12T04:17:48.710Z,14.60
2023-05-12T04:18:50.607Z,14.60
2023-05-12T04:19:53.753Z,14.60
2023-05-12T04:20:55.961Z,14.60
2023-05-12T04:21:57.843Z,14.60
2023-05-12T04:22:59.528Z,14.60
2023-05-12T04:24:01.316Z,14.60
2023-05-12T04:25:03.196Z,14.60
2023-05-12T04:26:05.318Z,14.60
2023-05-12T04:27:07.288Z,14.60
2023-05-12T04:28:11.961Z,14.60
2023-05-12T04:29:13.939Z,14.60
2023-05-12T04:30:16.910Z,14.60
2023-05-12T04:31:18.670Z,14.60
2023-05-12T04:32:20.380Z,14.50
2023-05-12T04:33:22.080Z,14.50
2023-05-12T04:34:23.744Z,14.50
2023-05-12T04:35:25.585Z,14.50
2023-05-12T04:36:27.253Z,14.50
2023-05-12T04:37:28.924Z,14.50
2023-05-12T04:38:30.592Z,14.60
2023-05-12T04:39:32.294Z,14.60
2023-05-12T04:40:35.144Z,14.50
2023-05-12T04:41:37.009Z,14.50
2023-05-12T04:42:38.707Z,14.50
2023-05-12T04:44:46.622Z,14.50
2023-05-12T04:45:51.107Z,14.50
2023-05-12T04:46:56.344Z,14.50
2023-05-12T04:47:58.396Z,14.60
2023-05-12T04:49:00.372Z,14.60
2023-05-12T04:50:02.674Z,14.60
2023-05-12T04:51:05.577Z,14.60
2023-05-12T04:52:07.688Z,14.60
2023-05-12T04:53:11.476Z,14.60
2023-05-12T04:54:15.102Z,14.60
2023-05-12T04:55:19.128Z,14.60
2023-05-12T04:56:22.212Z,14.60
2023-05-12T04:57:23.914Z,14.60
2023-05-12T04:58:25.815Z,14.60
2023-05-12T04:59:27.646Z,14.60
2023-05-12T05:00:29.312Z,14.60
2023-05-12T05:01:31.521Z,14.60
2023-05-12T05:02:33.486Z,14.60
2023-05-12T05:03:35.719Z,14.60
2023-05-12T05:04:37.919Z,14.60
2023-05-12T05:05:39.626Z,14.60
2023-05-12T05:06:41.312Z,14.60
2023-05-12T05:07:43.358Z,14.70
2023-05-12T05:08:45.005Z,14.60
2023-05-12T05:09:46.866Z,14.70
2023-05-12T05:10:48.587Z,14.70
2023-05-12T05:11:51.136Z,14.70
2023-05-12T05:12:52.807Z,14.70
2023-05-12T05:13:54.470Z,14.70
2023-05-12T05:14:56.252Z,14.70
2023-05-12T05:15:58.380Z,14.70
2023-05-12T05:17:01.401Z,14.70
2023-05-12T05:18:05.980Z,14.70
2023-05-12T05:19:21.451Z,14.70
2023-05-12T05:20:28.601Z,14.70
2023-05-12T05:21:30.865Z,14.90
2023-05-12T05:22:32.642Z,14.70
2023-05-12T05:23:34.339Z,14.70
2023-05-12T05:24:39.159Z,14.70
2023-05-12T05:25:43.600Z,14.70
2023-05-12T05:26:45.885Z,14.80
2023-05-12T05:27:47.577Z,14.80
2023-05-12T05:28:49.546Z,14.80
2023-05-12T05:29:51.543Z,14.80
2023-05-12T05:30:53.875Z,14.80
2023-05-12T05:31:55.722Z,14.80
2023-05-12T05:32:57.471Z,14.80
2023-05-12T05:33:59.263Z,14.80
2023-05-12T05:35:01.247Z,14.80
2023-05-12T05:36:03.269Z,14.80
2023-05-12T05:37:05.332Z,14.80
2023-05-12T05:38:07.178Z,14.80
2023-05-12T05:39:10.344Z,14.80
2023-05-12T05:40:12.592Z,14.80
2023-05-12T05:41:14.317Z,14.80
2023-05-12T05:42:16.029Z,14.80
2023-05-12T05:43:17.997Z,14.80
2023-05-12T05:44:19.676Z,14.80
2023-05-12T05:45:21.548Z,14.80
2023-05-12T05:46:23.560Z,14.80
2023-05-12T05:47:25.312Z,14.80
2023-05-12T05:48:27.476Z,14.70
2023-05-12T05:49:29.353Z,14.80
2023-05-12T05:50:31.057Z,14.70
2023-05-12T05:51:33.342Z,14.70
2023-05-12T05:52:35.909Z,14.70
2023-05-12T05:53:37.797Z,14.70
2023-05-12T05:54:39.602Z,14.70
2023-05-12T05:55:41.288Z,14.70
2023-05-12T05:56:42.950Z,14.70
2023-05-12T05:57:44.664Z,14.70
2023-05-12T05:58:46.623Z,14.70
2023-05-12T05:59:48.547Z,14.80
2023-05-12T06:00:51.428Z,14.80
2023-05-12T06:01:53.340Z,14.90
2023-05-12T06:02:55.706Z,14.90
2023-05-12T06:03:57.670Z,14.90
2023-05-12T06:05:00.858Z,14.90
2023-05-12T06:06:02.819Z,14.90
2023-05-12T06:07:04.672Z,14.90
2023-05-12T06:08:09.357Z,14.90
2023-05-12T06:09:12.441Z,14.90
2023-05-12T06:10:14.175Z,14.90
2023-05-12T06:11:17.849Z,14.90
2023-05-12T06:12:20.170Z,14.90
2023-05-12T06:13:21.847Z,14.90
2023-05-12T06:14:23.625Z,14.90
2023-05-12T06:15:27.241Z,14.90
2023-05-12T06:16:29.324Z,14.90
2023-05-12T06:17:32.705Z,15.00
2023-05-12T06:18:38.066Z,14.90
2023-05-12T06:19:40.446Z,14.90
2023-05-12T06:20:42.362Z,14.90
2023-05-12T06:21:44.692Z,14.80
2023-05-12T06:22:46.599Z,14.80
2023-05-12T06:23:48.655Z,14.80
2023-05-12T06:24:50.842Z,14.80
2023-05-12T06:25:52.730Z,14.80
2023-05-12T06:26:54.493Z,14.80
2023-05-12T06:27:56.227Z,14.80
2023-05-12T06:28:58.020Z,14.80
2023-05-12T06:29:59.755Z,14.80
2023-05-12T06:31:01.510Z,14.80
2023-05-12T06:32:03.286Z,14.80
2023-05-12T06:33:05.103Z,14.80
2023-05-12T06:34:07.089Z,14.80
2023-05-12T06:35:09.452Z,14.90
2023-05-12T06:36:12.428Z,14.90
2023-05-12T06:37:15.598Z,15.00
2023-05-12T06:38:17.318Z,15.00
2023-05-12T06:39:18.993Z,15.00
2023-05-12T06:40:21.834Z,15.00
2023-05-12T06:41:25.069Z,15.00
2023-05-12T06:42:26.970Z,15.10
2023-05-12T06:43:28.715Z,15.10
2023-05-12T06:44:31.110Z,15.20
2023-05-12T06:45:32.842Z,15.10
2023-05-12T06:46:34.608Z,15.20
2023-05-12T06:47:36.398Z,15.20
2023-05-12T06:48:38.186Z,15.10
2023-05-12T06:49:41.085Z,15.20
2023-05-12T06:50:43.256Z,15.20
2023-05-12T06:51:45.051Z,15.20
2023-05-12T06:52:46.880Z,15.30
2023-05-12T06:53:48.855Z,15.30
2023-05-12T06:54:51.099Z,15.30
2023-05-12T06:55:53.640Z,15.40
2023-05-12T06:56:55.294Z,15.40
2023-05-12T06:57:57.051Z,15.40
2023-05-12T06:59:02.957Z,15.40
2023-05-12T07:00:05.498Z,15.50
2023-05-12T07:01:07.193Z,15.50
2023-05-12T07:02:08.891Z,15.50
2023-05-12T07:03:10.748Z,15.60
2023-05-12T07:04:12.642Z,15.60
2023-05-12T07:05:14.398Z,15.60
2023-05-12T07:06:16.190Z,15.60
2023-05-12T07:07:17.884Z,15.70
2023-05-12T07:08:19.574Z,15.70
2023-05-12T07:09:21.576Z,15.60
2023-05-12T07:10:23.552Z,15.70
2023-05-12T07:11:25.615Z,15.80
2023-05-12T07:12:27.348Z,15.80
2023-05-12T07:13:29.193Z,15.80
2023-05-12T07:14:30.869Z,15.80
2023-05-12T07:15:33.040Z,15.80
2023-05-12T07:16:35.287Z,15.90
2023-05-12T07:17:37.449Z,15.90
2023-05-12T07:18:43.183Z,15.90
2023-05-12T07:19:44.878Z,15.90
2023-05-12T07:20:46.624Z,15.90
2023-05-12T07:21:48.968Z,15.90
2023-05-12T07:22:52.376Z,16.00
2023-05-12T07:23:54.069Z,16.00
2023-05-12T07:24:55.790Z,16.00
2023-05-12T07:25:57.642Z,16.00
2023-05-12T07:26:59.326Z,16.00
2023-05-12T07:28:00.998Z,16.00
2023-05-12T07:29:03.999Z,16.00
2023-05-12T07:30:08.277Z,16.00
2023-05-12T07:31:10.669Z,16.00
2023-05-12T07:32:12.392Z,16.00
2023-05-12T07:33:14.113Z,16.00
2023-05-12T07:34:15.864Z,16.10
2023-05-12T07:35:18.228Z,16.00
2023-05-12T07:36:28.627Z,16.10
2023-05-12T07:37:30.501Z,16.10
2023-05-12T07:38:32.696Z,16.10
2023-05-12T07:39:34.454Z,16.10
2023-05-12T07:40:36.111Z,16.10
2023-05-12T07:41:39.486Z,16.10
2023-05-12T07:42:41.645Z,16.20
2023-05-12T07:43:43.346Z,16.20
2023-05-12T07:44:45.069Z,16.20
2023-05-12T07:45:46.854Z,16.20
2023-05-12T07:46:48.501Z,16.20
2023-05-12T07:47:51.228Z,16.30
2023-05-12T07:48:52.906Z,16.30
2023-05-12T07:49:54.579Z,16.30
2023-05-12T07:50:56.271Z,16.30
2023-05-12T07:51:58.118Z,16.30
2023-05-12T07:53:00.211Z,16.40
2023-05-12T07:54:02.062Z,16.40
2023-05-12T07:55:03.937Z,16.40
2023-05-12T07:56:07.185Z,16.50
2023-05-12T07:57:08.983Z,16.50
2023-05-12T07:58:11.593Z,16.50
2023-05-12T07:59:14.388Z,16.50
2023-05-12T08:00:16.751Z,16.50
2023-05-12T08:01:18.816Z,16.50
2023-05-12T08:02:20.787Z,16.50
2023-05-12T08:03:23.749Z,16.50
2023-05-12T08:04:25.728Z,16.60
2023-05-12T08:05:27.673Z,16.60
2023-05-12T08:06:29.681Z,16.60
2023-05-12T08:07:31.729Z,16.60
2023-05-12T08:08:34.175Z,16.60
2023-05-12T08:09:35.901Z,16.70
2023-05-12T08:10:37.679Z,16.70
2023-05-12T08:11:40.736Z,16.70
2023-05-12T08:12:42.694Z,16.70
2023-05-12T08:13:44.396Z,16.80
2023-05-12T08:14:46.103Z,16.80
2023-05-12T08:15:50.020Z,16.90
2023-05-12T08:16:52.332Z,17.00
2023-05-12T08:17:54.235Z,17.00
2023-05-12T08:18:58.768Z,17.10
2023-05-12T08:20:04.356Z,17.10
2023-05-12T08:21:06.107Z,17.10
2023-05-12T08:22:07.836Z,17.20
2023-05-12T08:23:09.594Z,17.20
2023-05-12T08:24:11.309Z,17.20
2023-05-12T08:25:13.073Z,17.30
2023-05-12T08:26:14.756Z,17.30
2023-05-12T08:27:16.503Z,17.30
2023-05-12T08:28:18.173Z,17.30
2023-05-12T08:29:19.819Z,17.40
2023-05-12T08:30:21.584Z,17.40
2023-05-12T08:31:23.404Z,17.40
2023-05-12T08:32:25.225Z,17.50
2023-05-12T08:33:27.622Z,17.50
2023-05-12T08:34:29.995Z,17.50
2023-05-12T08:35:31.762Z,17.50
2023-05-12T08:36:33.724Z,17.50
2023-05-12T08:37:35.470Z,17.50
2023-05-12T08:38:37.206Z,17.50
2023-05-12T08:39:38.918Z,17.40
2023-05-12T08:41:02.544Z,17.30
2023-05-12T08:42:13.995Z,17.40
2023-05-12T08:43:26.138Z,17.40
2023-05-12T08:44:28.634Z,17.40
2023-05-12T08:45:33.408Z,17.50
2023-05-12T08:46:35.496Z,17.50
2023-05-12T08:47:38.345Z,17.50
2023-05-12T08:48:41.073Z,17.50
2023-05-12T08:49:44.148Z,17.50
2023-05-12T08:50:47.270Z,17.50
2023-05-12T08:51:57.285Z,17.50
2023-05-12T08:53:00.410Z,17.50
2023-05-12T08:54:04.125Z,17.50
2023-05-12T08:55:07.008Z,17.50
2023-05-12T08:57:16.215Z,17.40
2023-05-12T08:58:21.495Z,17.40
2023-05-12T08:59:30.151Z,17.40
2023-05-12T09:00:35.256Z,17.50
2023-05-12T09:01:38.017Z,17.50
2023-05-12T09:02:52.138Z,17.50
2023-05-12T09:03:56.391Z,17.50
2023-05-12T09:04:58.144Z,17.60
2023-05-12T09:06:01.257Z,17.60
2023-05-12T09:07:04.723Z,17.60
2023-05-12T09:08:09.287Z,17.60
2023-05-12T09:09:14.403Z,17.60
2023-05-12T09:10:32.788Z,17.60
2023-05-12T09:11:35.126Z,17.60
2023-05-12T09:12:38.373Z,17.60
2023-05-12T09:14:01.363Z,17.70
2023-05-12T09:15:08.177Z,17.70
2023-05-12T09:16:15.239Z,17.70
2023-05-12T09:17:18.872Z,17.70
2023-05-12T09:18:21.021Z,17.70
2023-05-12T09:19:23.199Z,17.70
2023-05-12T09:20:31.352Z,17.60
2023-05-12T09:21:35.369Z,17.70
2023-05-12T09:22:37.208Z,17.70
2023-05-12T09:23:41.655Z,17.70
2023-05-12T09:24:44.289Z,17.70
2023-05-12T09:25:49.712Z,17.90
2023-05-12T09:26:54.100Z,17.70
2023-05-12T09:27:58.739Z,17.70
2023-05-12T09:29:08.505Z,17.70
2023-05-12T09:30:11.001Z,17.80
2023-05-12T09:31:20.959Z,17.80
2023-05-12T09:32:33.691Z,17.80
2023-05-12T09:33:36.750Z,17.80
2023-05-12T09:34:41.308Z,17.80
2023-05-12T09:35:45.503Z,17.80
2023-05-12T09:36:59.116Z,17.90
2023-05-12T09:38:06.665Z,17.90
2023-05-12T09:39:09.951Z,17.90
2023-05-12T09:40:13.724Z,17.90
2023-05-12T09:41:23.335Z,17.90
2023-05-12T09:42:30.044Z,17.90
2023-05-12T09:43:32.023Z,18.00
2023-05-12T09:44:33.989Z,18.00
2023-05-12T09:45:37.083Z,18.00
2023-05-12T09:46:40.036Z,18.00
2023-05-12T09:47:42.501Z,18.10
2023-05-12T09:48:47.755Z,18.10
2023-05-12T09:49:52.321Z,18.10
2023-05-12T09:50:54.366Z,18.10
2023-05-12T09:51:57.535Z,18.10
2023-05-12T09:52:59.820Z,18.10
2023-05-12T09:54:01.733Z,18.10
2023-05-12T09:55:11.551Z,18.10
2023-05-12T09:56:14.253Z,18.10
2023-05-12T09:57:17.064Z,18.10
2023-05-12T09:58:20.751Z,18.10
2023-05-12T09:59:26.940Z,18.00
2023-05-12T10:00:51.948Z,18.00
2023-05-12T10:01:51.316Z,17.90
2023-05-12T10:02:53.648Z,17.90
2023-05-12T10:03:57.135Z,17.80
2023-05-12T10:05:03.116Z,17.80
2023-05-12T10:06:08.108Z,17.80
2023-05-12T10:07:13.130Z,17.80
2023-05-12T10:08:21.537Z,17.80
2023-05-12T10:09:28.659Z,17.80
2023-05-12T10:10:30.347Z,17.80
2023-05-12T10:11:33.436Z,17.70
2023-05-12T10:12:36.250Z,17.70
2023-05-12T10:13:38.791Z,17.80
2023-05-12T10:14:40.913Z,17.70
2023-05-12T10:15:44.065Z,17.70
2023-05-12T10:16:50.374Z,17.60
2023-05-12T10:17:55.965Z,17.70
2023-05-12T10:18:59.038Z,17.70
2023-05-12T10:20:02.302Z,17.70
2023-05-12T10:21:04.494Z,17.70
2023-05-12T10:22:09.960Z,17.70
2023-05-12T10:23:13.855Z,17.70
2023-05-12T10:24:16.915Z,17.70
2023-05-12T10:25:19.567Z,17.70
2023-05-12T10:26:22.205Z,17.80
2023-05-12T10:27:25.224Z,17.80
2023-05-12T10:28:27.090Z,17.80
2023-05-12T10:29:31.198Z,17.90
2023-05-12T10:30:33.880Z,17.80
2023-05-12T10:31:37.202Z,17.90
2023-05-12T10:32:38.936Z,17.90
2023-05-12T10:33:40.689Z,17.90
2023-05-12T10:34:43.541Z,17.90
2023-05-12T10:35:49.165Z,18.00
2023-05-12T10:36:52.287Z,18.00
2023-05-12T10:37:56.779Z,18.00
2023-05-12T10:39:06.380Z,18.00
2023-05-12T10:40:09.028Z,18.10
2023-05-12T10:41:11.080Z,18.10
2023-05-12T10:42:16.419Z,18.10
2023-05-12T10:43:26.817Z,18.10
2023-05-12T10:44:29.432Z,18.10
2023-05-12T10:45:36.773Z,18.10
2023-05-12T10:46:38.830Z,18.20
2023-05-12T10:47:42.553Z,18.20
2023-05-12T10:49:18.284Z,18.20
2023-05-12T10:50:29.605Z,18.20
2023-05-12T10:51:34.148Z,18.20
2023-05-12T10:52:36.010Z,18.10
2023-05-12T10:53:49.848Z,18.10
2023-05-12T10:55:01.468Z,18.10
2023-05-12T10:56:08.192Z,18.10
2023-05-12T10:57:20.646Z,18.00
2023-05-12T10:58:23.132Z,18.00
2023-05-12T10:59:28.022Z,18.00
2023-05-12T11:00:30.604Z,18.00
2023-05-12T11:01:33.430Z,17.90
2023-05-12T11:02:37.843Z,17.90
2023-05-12T11:03:41.127Z,17.90
2023-05-12T11:04:53.563Z,17.90
2023-05-12T11:06:06.916Z,17.90
2023-05-12T11:07:11.739Z,17.90
2023-05-12T11:08:15.974Z,17.90
2023-05-12T11:09:20.152Z,17.90
2023-05-12T11:10:22.292Z,17.90
2023-05-12T11:11:25.063Z,17.90
2023-05-12T11:12:30.346Z,17.90
2023-05-12T11:13:32.289Z,17.90
2023-05-12T11:14:45.025Z,17.90
2023-05-12T11:15:47.714Z,17.90
2023-05-12T11:16:50.863Z,17.90
2023-05-12T11:17:52.821Z,17.90
2023-05-12T11:19:20.851Z,17.90
2023-05-12T11:20:23.913Z,18.00
2023-05-12T11:21:25.786Z,17.90
2023-05-12T11:22:27.574Z,17.90
2023-05-12T11:23:29.658Z,17.90
2023-05-12T11:24:31.758Z,17.90
2023-05-12T11:25:33.856Z,17.90
2023-05-12T11:26:35.722Z,17.80
2023-05-12T11:27:42.597Z,17.90
2023-05-12T11:28:44.523Z,17.90
2023-05-12T11:29:57.050Z,17.90
2023-05-12T11:30:59.035Z,17.90
2023-05-12T11:32:00.879Z,17.90
2023-05-12T11:33:03.582Z,17.90
2023-05-12T11:34:12.582Z,17.90
2023-05-12T11:35:17.798Z,18.00
2023-05-12T11:36:21.781Z,18.00
2023-05-12T11:37:23.785Z,18.00
2023-05-12T11:38:27.586Z,18.00
2023-05-12T11:39:33.261Z,18.10
2023-05-12T11:40:41.397Z,18.10
2023-05-12T11:41:44.227Z,18.10
2023-05-12T11:42:49.062Z,18.20
2023-05-12T11:43:51.025Z,18.10
2023-05-12T11:44:53.156Z,18.10
2023-05-12T11:45:58.038Z,18.10
2023-05-12T11:47:02.697Z,18.10
2023-05-12T11:48:12.604Z,18.10
2023-05-12T11:49:14.510Z,18.20
2023-05-12T11:50:24.647Z,18.20
2023-05-12T11:51:27.570Z,18.20
2023-05-12T11:52:29.341Z,18.30
2023-05-12T11:53:31.594Z,18.30
2023-05-12T11:54:33.546Z,18.30
2023-05-12T11:55:35.225Z,18.50
2023-05-12T11:56:36.996Z,18.30
2023-05-12T11:57:39.605Z,18.30
2023-05-12T11:58:51.580Z,18.40
2023-05-12T11:59:58.481Z,18.30
2023-05-12T12:01:10.935Z,18.30
2023-05-12T12:02:20.423Z,18.30
2023-05-12T12:03:22.294Z,18.30
2023-05-12T12:04:41.733Z,18.20
2023-05-12T12:05:45.874Z,18.30
2023-05-12T12:06:48.546Z,18.30
2023-05-12T12:07:50.345Z,18.20
2023-05-12T12:08:56.777Z,18.30
2023-05-12T12:09:59.488Z,18.20
2023-05-12T12:11:03.556Z,18.30
2023-05-12T12:12:06.858Z,18.30
2023-05-12T12:13:08.656Z,18.40
2023-05-12T12:14:10.902Z,18.40
2023-05-12T12:15:13.291Z,18.40
2023-05-12T12:16:15.743Z,18.50
2023-05-12T12:17:17.535Z,18.50
2023-05-12T12:18:19.430Z,18.40
2023-05-12T12:19:21.130Z,18.60
2023-05-12T12:20:24.785Z,18.60
2023-05-12T12:21:26.533Z,18.60
2023-05-12T12:22:29.686Z,18.70
2023-05-12T12:23:40.431Z,18.70
2023-05-12T12:24:49.347Z,18.80
2023-05-12T12:25:51.012Z,18.80
2023-05-12T12:26:52.777Z,18.80
2023-05-12T12:27:54.532Z,18.80
2023-05-12T12:28:56.234Z,18.90
2023-05-12T12:29:58.026Z,18.90
2023-05-12T12:30:59.976Z,18.90
2023-05-12T12:32:01.907Z,18.90
2023-05-12T12:33:03.962Z,19.00
2023-05-12T12:34:05.909Z,19.00
2023-05-12T12:35:08.253Z,19.00
2023-05-12T12:36:10.060Z,19.00
2023-05-12T12:37:11.989Z,19.00
2023-05-12T12:38:13.719Z,19.10
2023-05-12T12:39:16.037Z,19.00
2023-05-12T12:40:20.064Z,19.00
2023-05-12T12:41:22.150Z,19.00
2023-05-12T12:42:25.381Z,19.00
2023-05-12T12:43:27.720Z,19.00
2023-05-12T12:44:29.554Z,19.10
2023-05-12T12:45:31.319Z,19.10
2023-05-12T12:46:33.061Z,19.30
2023-05-12T12:47:35.020Z,19.20
2023-05-12T12:48:37.192Z,19.20
2023-05-12T12:49:38.969Z,19.20
2023-05-12T12:50:40.746Z,19.20
2023-05-12T12:51:46.286Z,19.20
2023-05-12T12:52:49.262Z,19.30
2023-05-12T12:53:51.178Z,19.30
2023-05-12T12:54:52.902Z,19.30
2023-05-12T12:55:54.589Z,19.40
2023-05-12T12:56:56.817Z,19.40
2023-05-12T12:57:58.732Z,19.50
2023-05-12T12:59:00.426Z,19.50
2023-05-12T13:00:04.575Z,19.50
2023-05-12T13:01:06.823Z,19.50
2023-05-12T13:02:09.144Z,19.40
2023-05-12T13:03:10.962Z,19.40
2023-05-12T13:04:12.968Z,19.40
2023-05-12T13:05:15.072Z,19.40
2023-05-12T13:06:16.778Z,19.30
2023-05-12T13:07:18.443Z,19.40
2023-05-12T13:08:21.155Z,19.30
2023-05-12T13:09:23.131Z,19.20
2023-05-12T13:10:25.526Z,19.20
2023-05-12T13:11:27.495Z,19.10
2023-05-12T13:12:30.534Z,19.00
2023-05-12T13:13:32.472Z,18.90
2023-05-12T13:14:34.216Z,18.90
2023-05-12T13:15:35.949Z,18.90
2023-05-12T13:16:39.446Z,18.70
2023-05-12T13:17:43.059Z,18.70
2023-05-12T13:18:46.064Z,18.60
2023-05-12T13:19:47.857Z,18.60
2023-05-12T13:20:49.744Z,18.50
2023-05-12T13:21:52.044Z,18.50
2023-05-12T13:22:53.773Z,18.50
2023-05-12T13:23:55.563Z,18.40
2023-05-12T13:24:57.343Z,18.40
2023-05-12T13:25:59.428Z,18.30
2023-05-12T13:27:01.170Z,18.30
2023-05-12T13:28:03.256Z,18.30
2023-05-12T13:29:08.103Z,18.30
2023-05-12T13:30:13.372Z,18.30
2023-05-12T13:31:15.732Z,18.30
2023-05-12T13:32:17.923Z,18.30
2023-05-12T13:33:20.048Z,18.20
2023-05-12T13:34:24.073Z,18.20
2023-05-12T13:35:26.171Z,18.20